Time;durP1;ratioP1;P1;durP2;ratioP2;P2;SDS_P1;SDS_P2;PMS_P1;PMS_P2;Temp;Humidity;BMP_temperature;BMP_pressure;BME280_temperature;BME280_humidity;BME280_pressure;Samples;Min_cycle;Max_cycle;Signal;HPM_P1;HPM_P2
2021/11/05 00:00:24;;;;;;;17.87;13.30;;;7.50;99.90;;;8.47;100.00;99580.44;5032588;28;20617;-64
2021/11/05 00:02:54;;;;;;;18.80;12.87;;;7.60;99.90;;;8.38;100.00;99597.84;5032563;28;20229;-65
2021/11/05 00:05:23;;;;;;;16.23;12.03;;;7.60;99.90;;;8.38;100.00;99597.84;5035334;28;20289;-64
2021/11/05 00:07:53;;;;;;;18.03;13.07;;;7.60;99.90;;;8.22;100.00;99593.81;5035967;28;20202;-66
2021/11/05 00:10:22;;;;;;;17.07;12.43;;;7.60;99.90;;;8.29;100.00;99601.81;5036310;28;20210;-64
2021/11/05 00:12:51;;;;;;;18.07;13.47;;;7.50;99.90;;;8.30;100.00;99604.28;5036292;28;20602;-66
2021/11/05 00:15:19;;;;;;;18.13;12.63;;;7.50;99.90;;;8.33;100.00;99605.72;5036168;28;20289;-64
2021/11/05 00:17:47;;;;;;;16.83;13.00;;;7.50;99.90;;;8.42;100.00;99607.09;5036271;28;20252;-65
2021/11/05 00:20:17;;;;;;;16.87;12.20;;;7.50;99.90;;;8.35;100.00;99612.53;5036283;28;20296;-65
2021/11/05 00:22:45;;;;;;;17.03;12.67;;;7.60;99.90;;;8.20;100.00;99616.53;5036054;28;20297;-65
2021/11/05 00:25:15;;;;;;;15.93;12.00;;;7.60;99.90;;;8.37;100.00;99623.03;5036129;28;20194;-65
2021/11/05 00:27:43;;;;;;;16.93;12.53;;;7.60;99.90;;;8.43;100.00;99628.34;5036146;28;20298;-65
2021/11/05 00:30:14;;;;;;;16.53;13.03;;;7.60;99.90;;;8.38;100.00;99622.00;5035685;28;20210;-65
2021/11/05 00:32:43;;;;;;;17.70;12.17;;;7.60;99.90;;;8.48;100.00;99630.38;5035847;28;20187;-66
2021/11/05 00:35:13;;;;;;;17.77;11.73;;;7.60;99.90;;;8.67;100.00;99628.56;5035336;28;20245;-66
2021/11/05 00:37:42;;;;;;;17.50;12.40;;;7.70;99.90;;;8.57;100.00;99632.56;5035560;28;20224;-65
2021/11/05 00:40:14;;;;;;;17.30;12.90;;;7.70;99.90;;;8.46;100.00;99646.69;5035634;28;20293;-65
2021/11/05 00:42:43;;;;;;;19.77;13.30;;;7.60;99.90;;;8.36;100.00;99649.06;5035531;28;20187;-66
2021/11/05 00:45:13;;;;;;;16.60;11.90;;;7.60;99.90;;;8.37;100.00;99641.84;5035820;28;20206;-65
2021/11/05 00:47:41;;;;;;;17.83;11.87;;;7.60;99.90;;;8.62;100.00;99659.56;5035293;28;20601;-65
2021/11/05 00:50:10;;;;;;;15.23;11.10;;;7.70;99.90;;;8.58;100.00;99644.94;5035435;28;20202;-65
2021/11/05 00:52:39;;;;;;;16.93;12.10;;;7.70;99.90;;;8.56;100.00;99654.25;5035539;28;20297;-65
2021/11/05 00:55:09;;;;;;;15.23;11.90;;;7.70;99.90;;;8.44;100.00;99646.09;5035784;28;20202;-66
2021/11/05 00:57:39;;;;;;;16.73;11.97;;;7.70;99.90;;;8.55;100.00;99666.88;5035166;28;20237;-67
2021/11/05 01:00:12;;;;;;;21.03;12.47;;;7.70;99.90;;;8.46;100.00;99664.66;5035542;28;20252;-67
2021/11/05 01:02:41;;;;;;;18.63;12.33;;;7.60;99.90;;;8.43;100.00;99675.84;5035455;28;20281;-65
2021/11/05 01:05:12;;;;;;;17.80;13.17;;;7.60;99.90;;;8.32;100.00;99677.34;5035204;28;20288;-67
2021/11/05 01:07:41;;;;;;;18.53;12.60;;;7.60;99.90;;;8.31;100.00;99683.75;5035210;28;20631;-66
2021/11/05 01:10:10;;;;;;;19.93;12.20;;;7.60;99.90;;;8.44;100.00;99680.16;5035390;28;20206;-65
2021/11/05 01:12:40;;;;;;;21.17;13.37;;;7.60;99.90;;;8.40;100.00;99673.59;5035171;28;20302;-65
2021/11/05 01:15:11;;;;;;;18.67;12.43;;;7.60;99.90;;;8.41;100.00;99686.78;5034389;28;20245;-64
2021/11/05 01:17:40;;;;;;;20.47;13.60;;;7.60;99.90;;;8.30;100.00;99687.47;5034501;28;20278;-65
2021/11/05 01:20:13;;;;;;;20.67;13.83;;;7.60;99.90;;;8.31;100.00;99688.31;5034811;28;20241;-65
2021/11/05 01:22:42;;;;;;;19.63;13.90;;;7.60;99.90;;;8.28;100.00;99686.06;5034549;28;20277;-65
2021/11/05 01:25:13;;;;;;;20.63;14.10;;;7.50;99.90;;;8.32;100.00;99696.13;5034987;28;20309;-65
2021/11/05 01:27:44;;;;;;;22.77;13.83;;;7.50;99.90;;;8.32;100.00;99693.44;5035002;28;20280;-65
2021/11/05 01:30:15;;;;;;;18.17;12.53;;;7.50;99.90;;;8.45;100.00;99696.06;5034972;28;20248;-65
2021/11/05 01:32:44;;;;;;;18.93;13.07;;;7.50;99.90;;;8.31;100.00;99702.56;5034671;28;20725;-64
2021/11/05 01:35:14;;;;;;;19.90;13.17;;;7.50;99.90;;;8.10;100.00;99702.84;5034687;28;20666;-66
2021/11/05 01:37:43;;;;;;;18.50;12.93;;;7.40;99.90;;;8.28;100.00;99704.84;5034761;28;20288;-66
2021/11/05 01:40:13;;;;;;;20.47;13.00;;;7.40;99.90;;;8.28;100.00;99716.41;5034776;28;20201;-66
2021/11/05 01:42:44;;;;;;;20.67;13.80;;;7.50;99.90;;;8.18;100.00;99723.25;5034686;28;20308;-65
2021/11/05 01:45:13;;;;;;;19.50;13.57;;;7.40;99.90;;;8.29;100.00;99726.09;5034380;28;20198;-65
2021/11/05 01:47:41;;;;;;;19.63;13.33;;;7.40;99.90;;;8.23;100.00;99721.59;5034382;28;20201;-65
2021/11/05 01:50:11;;;;;;;20.23;13.23;;;7.40;99.90;;;8.23;100.00;99718.91;5034354;28;20240;-65
2021/11/05 01:52:42;;;;;;;21.23;13.43;;;7.40;99.90;;;8.32;100.00;99722.16;5034441;28;20190;-64
2021/11/05 01:55:11;;;;;;;22.10;14.07;;;7.40;99.90;;;8.26;100.00;99723.00;5034758;28;20269;-66
2021/11/05 01:57:41;;;;;;;22.83;15.00;;;7.40;99.90;;;8.21;100.00;99725.47;5034024;28;20324;-66
2021/11/05 02:00:16;;;;;;;23.00;14.90;;;7.40;99.90;;;8.11;100.00;99723.28;5034173;28;20249;-66
2021/11/05 02:02:45;;;;;;;22.33;15.10;;;7.40;99.90;;;8.27;100.00;99733.53;5034267;28;20224;-67
2021/11/05 02:05:14;;;;;;;24.47;14.80;;;7.30;99.90;;;8.22;100.00;99730.63;5033799;28;20704;-65
2021/11/05 02:07:47;;;;;;;22.90;14.90;;;7.30;99.90;;;8.20;100.00;99746.13;5034092;28;20210;-66
2021/11/05 02:10:16;;;;;;;20.53;14.20;;;7.40;99.90;;;8.17;100.00;99743.88;5033791;28;20220;-65
2021/11/05 02:12:45;;;;;;;24.13;15.40;;;7.40;99.90;;;8.07;100.00;99740.00;5033650;28;20733;-65
2021/11/05 02:15:17;;;;;;;24.63;14.63;;;7.30;99.90;;;7.98;100.00;99749.34;5033833;28;20267;-64
2021/11/05 02:17:47;;;;;;;23.43;14.80;;;7.30;99.90;;;8.13;100.00;99752.56;5033917;28;20200;-65
2021/11/05 02:20:19;;;;;;;23.90;14.77;;;7.30;99.90;;;8.19;100.00;99749.84;5033378;28;20228;-65
2021/11/05 02:22:49;;;;;;;22.80;15.07;;;7.30;99.90;;;8.23;100.00;99761.84;5033899;28;20283;-65
2021/11/05 02:25:18;;;;;;;22.37;14.33;;;7.30;99.90;;;8.27;100.00;99763.03;5033554;28;20646;-65
2021/11/05 02:27:49;;;;;;;22.17;14.33;;;7.40;99.90;;;8.23;100.00;99760.97;5033072;28;20756;-66
2021/11/05 02:30:17;;;;;;;21.63;14.17;;;7.40;99.90;;;8.15;100.00;99761.22;5033843;28;20270;-66
2021/11/05 02:32:46;;;;;;;23.47;15.30;;;7.30;99.90;;;8.23;100.00;99771.72;5033602;28;20202;-65
2021/11/05 02:35:17;;;;;;;21.53;14.53;;;7.30;99.90;;;8.13;100.00;99768.66;5033417;28;20237;-65
2021/11/05 02:37:46;;;;;;;25.00;15.07;;;7.30;99.90;;;8.14;100.00;99786.38;5033211;28;20202;-65
2021/11/05 02:40:18;;;;;;;20.57;13.73;;;7.30;99.90;;;8.06;100.00;99783.97;5033060;28;20257;-65
2021/11/05 02:42:46;;;;;;;21.40;14.27;;;7.30;99.90;;;8.08;100.00;99781.88;5033409;28;20194;-65
2021/11/05 02:45:14;;;;;;;23.63;13.23;;;7.30;99.90;;;8.21;100.00;99781.81;5033340;28;20256;-66
2021/11/05 02:47:44;;;;;;;22.40;14.50;;;7.30;99.90;;;8.10;100.00;99791.34;5032904;28;20734;-65
2021/11/05 02:50:16;;;;;;;20.80;14.23;;;7.30;99.90;;;8.24;100.00;99789.47;5033185;28;20198;-65
2021/11/05 02:52:44;;;;;;;20.73;13.90;;;7.30;99.90;;;8.08;100.00;99795.31;5033137;28;20186;-65
2021/11/05 02:55:15;;;;;;;20.53;13.03;;;7.30;99.90;;;8.25;100.00;99793.81;5032957;28;20248;-65
2021/11/05 02:57:43;;;;;;;19.17;13.63;;;7.30;99.90;;;8.11;100.00;99806.44;5033024;28;20234;-65
2021/11/05 03:00:14;;;;;;;21.90;13.67;;;7.30;99.90;;;8.05;100.00;99801.09;5032720;28;20304;-65
2021/11/05 03:02:42;;;;;;;23.03;14.23;;;7.30;99.90;;;8.12;100.00;99813.44;5033149;28;20193;-66
2021/11/05 03:05:12;;;;;;;22.53;14.30;;;7.30;99.90;;;8.25;100.00;99804.56;5032568;28;20740;-65
2021/11/05 03:07:40;;;;;;;23.47;14.53;;;7.30;99.90;;;8.09;100.00;99813.03;5032866;28;20568;-66
2021/11/05 03:10:10;;;;;;;22.10;14.60;;;7.30;99.90;;;8.16;100.00;99816.53;5032841;28;20620;-66
2021/11/05 03:12:40;;;;;;;21.43;14.33;;;7.30;99.90;;;8.23;100.00;99831.59;5032730;28;20614;-65
2021/11/05 03:15:09;;;;;;;21.60;13.80;;;7.30;99.90;;;7.93;100.00;99835.78;5032599;28;20297;-65
2021/11/05 03:17:39;;;;;;;21.60;13.83;;;7.20;99.90;;;8.06;100.00;99842.97;5032481;28;20202;-65
2021/11/05 03:20:11;;;;;;;22.07;13.70;;;7.20;99.90;;;7.90;100.00;99841.56;5032352;28;20313;-65
2021/11/05 03:22:39;;;;;;;22.80;13.43;;;7.20;99.90;;;7.98;100.00;99853.94;5032757;28;20277;-65
2021/11/05 03:25:08;;;;;;;23.77;13.77;;;7.20;99.90;;;7.86;100.00;99855.59;5032884;28;20297;-64
2021/11/05 03:27:37;;;;;;;17.53;12.00;;;7.20;99.90;;;7.82;100.00;99855.19;5032727;28;20211;-65
2021/11/05 03:30:10;;;;;;;21.87;13.90;;;7.20;99.90;;;7.91;100.00;99859.31;5032764;28;20288;-67
2021/11/05 03:32:40;;;;;;;22.47;13.60;;;7.20;99.90;;;8.05;100.00;99863.59;5032729;28;20609;-65
2021/11/05 03:35:12;;;;;;;20.83;13.77;;;7.20;99.90;;;8.04;100.00;99863.81;5032898;28;20186;-65
2021/11/05 03:37:40;;;;;;;22.37;14.37;;;7.20;99.90;;;8.25;100.00;99868.94;5032503;28;20296;-64
2021/11/05 03:40:11;;;;;;;23.67;14.30;;;7.20;99.90;;;8.20;100.00;99874.09;5035378;28;20253;-64
2021/11/05 03:42:39;;;;;;;20.83;13.50;;;7.20;99.90;;;8.19;100.00;99884.00;5036732;28;20224;-66
2021/11/05 03:45:10;;;;;;;21.20;13.47;;;7.30;99.90;;;7.94;100.00;99891.06;5036756;28;20202;-65
2021/11/05 03:47:38;;;;;;;23.93;14.37;;;7.20;99.90;;;7.97;100.00;99889.81;5036631;28;20281;-65
2021/11/05 03:50:06;;;;;;;22.40;13.77;;;7.20;99.90;;;7.89;100.00;99890.88;5036618;28;20228;-65
2021/11/05 03:52:35;;;;;;;24.37;14.00;;;7.20;99.90;;;8.00;100.00;99900.16;5036647;28;20288;-65
2021/11/05 03:55:03;;;;;;;20.10;13.13;;;7.20;99.90;;;8.02;100.00;99903.41;5036397;28;20216;-65
2021/11/05 03:57:31;;;;;;;23.80;14.27;;;7.20;99.90;;;7.92;100.00;99911.91;5036461;28;20632;-65
2021/11/05 03:59:59;;;;;;;22.60;13.93;;;7.20;99.90;;;8.06;100.00;99915.41;5036329;28;20222;-64
2021/11/05 04:02:29;;;;;;;21.53;14.20;;;7.20;99.90;;;8.07;100.00;99919.72;5036110;28;20288;-64
2021/11/05 04:04:57;;;;;;;21.60;14.43;;;7.20;99.90;;;7.90;100.00;99919.34;5036104;28;20708;-64
2021/11/05 04:07:25;;;;;;;18.23;11.67;;;7.20;99.90;;;8.08;100.00;99926.75;5036081;28;20292;-65
2021/11/05 04:09:53;;;;;;;14.27;9.93;;;7.20;99.90;;;8.00;100.00;99932.34;5036359;28;20532;-65
2021/11/05 04:12:22;;;;;;;14.53;9.87;;;7.20;99.90;;;8.00;100.00;99933.13;5036102;28;20229;-65
2021/11/05 04:14:50;;;;;;;14.50;9.60;;;7.20;99.90;;;7.99;100.00;99933.34;5036045;28;20608;-66
2021/11/05 04:17:18;;;;;;;10.40;7.23;;;7.10;99.90;;;8.01;100.00;99944.69;5036074;28;20288;-65
2021/11/05 04:19:47;;;;;;;9.03;7.10;;;7.20;99.90;;;7.78;100.00;99950.47;5035631;28;20773;-65
2021/11/05 04:22:16;;;;;;;8.57;5.90;;;7.10;99.90;;;7.80;100.00;99956.47;5035658;28;20206;-65
2021/11/05 04:24:44;;;;;;;6.67;5.47;;;7.10;99.90;;;7.77;100.00;99953.38;5035918;28;20209;-66
2021/11/05 04:27:12;;;;;;;7.67;5.50;;;7.10;99.90;;;7.76;100.00;99951.75;5036163;28;20205;-65
2021/11/05 04:29:40;;;;;;;7.93;5.93;;;7.00;99.90;;;7.68;100.00;99952.75;5035839;28;20199;-64
2021/11/05 04:32:09;;;;;;;6.20;5.20;;;7.00;99.90;;;7.72;100.00;99963.91;5035863;28;20322;-65
2021/11/05 04:34:37;;;;;;;6.90;5.50;;;7.00;99.90;;;7.71;100.00;99963.09;5035752;28;20233;-64
2021/11/05 04:37:07;;;;;;;7.73;6.30;;;7.00;99.90;;;7.69;100.00;99975.03;5035649;28;20277;-66
2021/11/05 04:39:35;;;;;;;7.23;6.00;;;7.00;99.90;;;7.79;100.00;99964.72;5035177;28;20549;-66
2021/11/05 04:42:03;;;;;;;6.20;5.37;;;7.00;99.90;;;7.79;100.00;99973.59;5035582;28;20201;-65
2021/11/05 04:44:31;;;;;;;8.53;6.00;;;7.00;99.90;;;7.84;100.00;99981.03;5035263;28;20657;-64
2021/11/05 04:46:59;;;;;;;8.00;6.03;;;7.00;99.90;;;7.68;100.00;99982.25;5035269;28;20266;-65
2021/11/05 04:49:27;;;;;;;7.20;5.83;;;7.00;99.90;;;7.73;100.00;99984.31;5035000;28;20748;-65
2021/11/05 04:51:55;;;;;;;7.40;6.07;;;7.00;99.90;;;7.86;100.00;99987.00;5035098;28;20294;-64
2021/11/05 04:54:25;;;;;;;7.80;6.33;;;7.00;99.90;;;7.73;100.00;99985.13;5034934;28;20212;-64
2021/11/05 04:56:53;;;;;;;9.00;6.47;;;7.00;99.90;;;7.66;100.00;99991.53;5035036;28;20233;-65
2021/11/05 04:59:21;;;;;;;7.63;6.77;;;7.00;99.90;;;7.65;100.00;99998.75;5035193;28;20285;-64
2021/11/05 05:01:49;;;;;;;8.77;6.57;;;6.90;99.90;;;7.90;100.00;99990.94;5034872;28;20317;-64
2021/11/05 05:04:17;;;;;;;7.73;6.40;;;7.00;99.90;;;7.91;100.00;99996.09;5035296;28;20292;-65
2021/11/05 05:06:45;;;;;;;10.83;7.40;;;7.00;99.90;;;7.93;100.00;100006.59;5035165;28;20296;-64
2021/11/05 05:09:13;;;;;;;10.90;7.93;;;7.00;99.90;;;7.89;100.00;100006.19;5034678;28;20599;-64
2021/11/05 05:11:45;;;;;;;9.67;7.40;;;7.00;99.90;;;7.91;100.00;100011.34;5034995;28;20202;-65
2021/11/05 05:14:14;;;;;;;12.77;7.93;;;7.00;99.90;;;7.81;100.00;100013.63;5035115;28;20260;-65
2021/11/05 05:16:42;;;;;;;10.17;7.87;;;7.00;99.90;;;7.81;100.00;100027.84;5035006;28;20208;-64
2021/11/05 05:19:10;;;;;;;10.03;7.90;;;7.00;99.90;;;7.85;100.00;100022.88;5034815;28;20317;-67
2021/11/05 05:21:38;;;;;;;11.50;8.00;;;7.00;99.90;;;7.86;100.00;100029.91;5034924;28;20305;-65
2021/11/05 05:24:06;;;;;;;12.53;8.73;;;7.00;99.90;;;7.82;100.00;100037.53;5034738;28;20294;-66
2021/11/05 05:26:34;;;;;;;12.33;8.97;;;7.00;99.90;;;7.93;100.00;100033.44;5034725;28;20308;-65
2021/11/05 05:29:03;;;;;;;12.87;8.63;;;7.00;99.90;;;7.73;100.00;100046.00;5034714;28;20204;-65
2021/11/05 05:31:31;;;;;;;13.33;9.53;;;7.00;99.90;;;7.79;100.00;100035.28;5034830;28;20284;-65
2021/11/05 05:33:59;;;;;;;12.97;9.40;;;7.00;99.90;;;7.81;100.00;100053.84;5034521;28;20297;-64
2021/11/05 05:36:27;;;;;;;13.43;10.00;;;7.10;99.90;;;7.75;100.00;100057.31;5034685;28;20212;-65
2021/11/05 05:38:55;;;;;;;14.33;10.03;;;7.00;99.90;;;7.86;100.00;100059.41;5034112;28;20202;-65
2021/11/05 05:41:23;;;;;;;15.93;11.00;;;7.00;99.90;;;7.95;100.00;100050.16;5034501;28;20218;-65
2021/11/05 05:43:51;;;;;;;16.77;11.20;;;7.10;99.90;;;8.00;100.00;100066.44;5034162;28;20293;-65
2021/11/05 05:46:21;;;;;;;14.77;10.83;;;7.10;99.90;;;7.90;100.00;100066.03;5034297;28;20226;-64
2021/11/05 05:48:49;;;;;;;17.07;11.13;;;7.10;99.90;;;8.02;100.00;100072.41;5033706;28;20206;-65
2021/11/05 05:51:17;;;;;;;14.67;10.70;;;7.10;99.90;;;7.92;100.00;100080.03;5034236;28;20198;-66
2021/11/05 05:53:45;;;;;;;17.17;11.50;;;7.10;99.90;;;7.88;100.00;100076.94;5033919;28;20297;-64
2021/11/05 05:56:13;;;;;;;16.83;11.27;;;7.10;99.90;;;7.86;100.00;100087.06;5034044;28;20297;-64
2021/11/05 05:58:41;;;;;;;17.27;12.10;;;7.10;99.90;;;8.16;100.00;100093.69;5034061;28;20244;-64
2021/11/05 06:01:09;;;;;;;15.30;10.77;;;7.20;99.90;;;7.85;100.00;100100.66;5033538;28;20309;-64
2021/11/05 06:03:39;;;;;;;15.43;10.20;;;7.10;99.90;;;7.96;100.00;100105.44;5033543;28;20582;-64
2021/11/05 06:06:07;;;;;;;15.13;11.07;;;7.10;99.90;;;7.91;100.00;100102.53;5033475;28;20753;-64
2021/11/05 06:08:36;;;;;;;16.13;10.73;;;7.10;99.90;;;7.95;100.00;100112.63;5033813;28;20198;-63
2021/11/05 06:11:04;;;;;;;15.83;10.67;;;7.10;99.90;;;7.85;100.00;100120.25;5033615;28;20741;-64
2021/11/05 06:13:32;;;;;;;16.33;10.67;;;7.10;99.90;;;7.75;100.00;100118.97;5033828;28;20237;-67
2021/11/05 06:16:02;;;;;;;15.00;10.87;;;7.10;99.90;;;7.82;100.00;100126.03;5033776;28;20202;-67
2021/11/05 06:18:30;;;;;;;14.10;10.07;;;7.10;99.90;;;7.85;100.00;100127.47;5033791;28;20289;-67
2021/11/05 06:20:59;;;;;;;16.37;11.27;;;7.00;99.90;;;7.81;100.00;100137.78;5033245;28;20222;-66
2021/11/05 06:23:28;;;;;;;16.03;10.53;;;7.10;99.90;;;8.01;100.00;100143.19;5033134;28;20654;-66
2021/11/05 06:25:56;;;;;;;14.27;10.17;;;7.10;99.90;;;7.85;100.00;100146.22;5033600;28;20305;-67
2021/11/05 06:28:25;;;;;;;13.53;9.87;;;7.10;99.90;;;7.95;100.00;100152.88;5033718;28;20273;-65
2021/11/05 06:30:55;;;;;;;15.63;10.33;;;7.10;99.90;;;8.05;100.00;100155.97;5033391;28;20206;-66
2021/11/05 06:33:23;;;;;;;16.13;11.57;;;7.20;99.90;;;7.96;100.00;100161.75;5033898;28;20288;-66
2021/11/05 06:35:51;;;;;;;16.07;11.63;;;7.10;99.90;;;7.90;100.00;100158.00;5033344;28;20294;-66
2021/11/05 06:38:20;;;;;;;14.93;11.67;;;7.10;99.90;;;8.04;100.00;100169.59;5033300;28;20309;-66
2021/11/05 06:40:48;;;;;;;16.47;11.80;;;7.10;99.90;;;7.98;100.00;100175.78;5033434;28;20301;-66
2021/11/05 06:43:16;;;;;;;16.70;11.90;;;7.10;99.90;;;8.02;100.00;100182.38;5033662;28;20300;-66
2021/11/05 06:45:44;;;;;;;16.30;11.13;;;7.10;99.90;;;8.05;100.00;100184.69;5033101;28;20210;-66
2021/11/05 06:48:12;;;;;;;18.10;11.90;;;7.20;99.90;;;8.00;100.00;100200.56;5033163;28;20293;-66
2021/11/05 06:50:42;;;;;;;16.47;11.17;;;7.20;99.90;;;8.01;100.00;100191.47;5033074;28;20292;-66
2021/11/05 06:53:10;;;;;;;16.17;11.33;;;7.20;99.90;;;8.00;100.00;100200.56;5033036;28;20550;-66
2021/11/05 06:55:40;;;;;;;15.97;11.00;;;7.20;99.90;;;8.05;100.00;100206.16;5033150;28;20300;-65
2021/11/05 06:58:08;;;;;;;15.67;11.50;;;7.20;99.90;;;8.08;100.00;100208.41;5032903;28;20229;-65
2021/11/05 07:00:36;;;;;;;15.73;11.27;;;7.20;99.90;;;7.99;100.00;100218.50;5033094;28;20224;-66
2021/11/05 07:03:05;;;;;;;16.73;11.40;;;7.20;99.90;;;8.23;100.00;100215.31;5032783;28;20589;-67
2021/11/05 07:05:34;;;;;;;14.90;10.50;;;7.20;99.90;;;8.28;100.00;100220.06;5033081;28;20205;-67
2021/11/05 07:08:04;;;;;;;15.50;10.90;;;7.30;99.90;;;8.28;100.00;100226.25;5032770;28;20301;-65
2021/11/05 07:10:33;;;;;;;14.47;10.70;;;7.30;99.90;;;8.23;100.00;100228.72;5032798;28;20248;-66
2021/11/05 07:13:03;;;;;;;12.67;9.67;;;7.30;99.90;;;8.19;100.00;100235.47;5032249;28;20765;-64
2021/11/05 07:15:31;;;;;;;14.07;11.17;;;7.30;99.90;;;8.13;100.00;100246.19;5032431;28;20218;-65
2021/11/05 07:18:01;;;;;;;15.37;10.10;;;7.30;99.90;;;8.04;100.00;100245.53;5032824;28;20246;-64
2021/11/05 07:20:32;;;;;;;13.97;10.63;;;7.30;99.90;;;8.37;100.00;100251.84;5032560;28;20210;-65
2021/11/05 07:23:01;;;;;;;13.37;10.20;;;7.40;99.90;;;8.34;100.00;100254.94;5032289;28;20298;-65
2021/11/05 07:25:29;;;;;;;12.57;9.07;;;7.40;99.90;;;8.14;100.00;100266.63;5032710;28;20230;-66
2021/11/05 07:27:58;;;;;;;14.77;10.70;;;7.40;99.90;;;8.28;100.00;100265.69;5032673;28;20288;-66
2021/11/05 07:30:28;;;;;;;15.40;10.10;;;7.40;99.90;;;8.22;100.00;100271.81;5033062;28;20300;-65
2021/11/05 07:32:56;;;;;;;16.07;11.23;;;7.40;99.90;;;8.24;100.00;100277.81;5032381;28;20594;-66
2021/11/05 07:35:24;;;;;;;14.23;10.77;;;7.40;99.90;;;8.25;100.00;100280.31;5032546;28;20292;-66
2021/11/05 07:37:53;;;;;;;15.83;11.10;;;7.40;99.90;;;8.23;100.00;100287.75;5032418;28;20202;-65
2021/11/05 07:40:23;;;;;;;14.00;10.23;;;7.40;99.90;;;8.11;100.00;100288.50;5032624;28;20230;-65
2021/11/05 07:42:51;;;;;;;14.10;10.50;;;7.40;99.90;;;8.13;100.00;100289.97;5032551;28;20384;-65
2021/11/05 07:45:19;;;;;;;12.77;10.23;;;7.40;99.90;;;8.15;100.00;100295.13;5032511;28;20292;-65
2021/11/05 07:47:49;;;;;;;12.77;10.10;;;7.40;99.90;;;8.31;100.00;100298.31;5032118;28;20216;-65
2021/11/05 07:50:19;;;;;;;14.03;10.87;;;7.40;99.90;;;8.35;100.00;100309.47;5032231;28;20208;-67
2021/11/05 07:52:47;;;;;;;12.80;9.80;;;7.40;99.90;;;8.28;100.00;100304.06;5032412;28;20186;-66
2021/11/05 07:55:16;;;;;;;13.20;9.73;;;7.40;99.90;;;8.26;100.00;100307.97;5032440;28;20202;-65
2021/11/05 07:57:44;;;;;;;13.17;9.87;;;7.40;99.90;;;8.46;100.00;100320.44;5032150;28;20230;-67
2021/11/05 08:00:15;;;;;;;12.83;9.80;;;7.40;99.90;;;8.33;100.00;100308.84;5032303;28;20230;-66
2021/11/05 08:02:43;;;;;;;13.30;9.80;;;7.50;99.90;;;8.50;100.00;100326.25;5032403;28;20297;-66
2021/11/05 08:05:13;;;;;;;12.70;9.63;;;7.50;99.90;;;8.30;100.00;100328.84;5032011;28;20237;-66
2021/11/05 08:07:42;;;;;;;12.87;9.93;;;7.50;99.90;;;8.27;100.00;100329.25;5032320;28;20216;-66
2021/11/05 08:10:14;;;;;;;13.87;9.77;;;7.50;99.90;;;8.36;100.00;100330.72;5032364;28;20210;-65
2021/11/05 08:12:42;;;;;;;13.77;9.77;;;7.50;99.90;;;8.25;100.00;100344.72;5032304;28;20214;-65
2021/11/05 08:15:30;;;;;;;10.80;9.00;;;7.50;99.90;;;8.25;100.00;100336.66;5032208;28;20202;-66
2021/11/05 08:17:58;;;;;;;12.07;9.00;;;7.50;99.90;;;8.22;100.00;100347.78;5032272;28;20745;-65
2021/11/05 08:20:27;;;;;;;11.87;8.67;;;7.50;99.90;;;8.32;100.00;100358.19;5031998;28;20207;-65
2021/11/05 08:22:55;;;;;;;11.63;8.87;;;7.50;99.90;;;8.38;100.00;100358.22;5031948;28;20328;-66
2021/11/05 08:25:24;;;;;;;11.13;8.13;;;7.60;99.90;;;8.54;100.00;100359.72;5033528;28;20297;-65
2021/11/05 08:27:53;;;;;;;9.73;7.77;;;7.60;99.90;;;8.48;100.00;100358.66;5035860;28;20237;-66
2021/11/05 08:30:24;;;;;;;8.60;7.17;;;7.60;99.90;;;8.60;100.00;100369.63;5036161;28;20288;-66
2021/11/05 08:32:57;;;;;;;11.10;7.77;;;7.60;99.90;;;8.64;100.00;100376.28;5035512;28;20744;-65
2021/11/05 08:35:29;;;;;;;10.57;7.50;;;7.70;99.90;;;8.44;100.00;100369.97;5036110;28;20190;-66
2021/11/05 08:37:58;;;;;;;9.87;7.77;;;7.60;99.90;;;8.41;100.00;100381.97;5038069;28;20272;-66
2021/11/05 08:40:26;;;;;;;10.27;8.33;;;7.60;99.90;;;8.38;100.00;100379.69;5037510;28;20212;-66
2021/11/05 08:42:55;;;;;;;9.30;7.57;;;7.60;99.90;;;8.51;100.00;100377.03;5037996;28;20232;-65
2021/11/05 08:45:23;;;;;;;9.50;7.60;;;7.60;99.90;;;8.58;100.00;100387.78;5038336;28;20308;-66
2021/11/05 08:47:51;;;;;;;10.13;8.07;;;7.70;99.90;;;8.54;100.00;100387.38;5039236;28;20248;-66
2021/11/05 08:50:22;;;;;;;11.50;8.57;;;7.60;99.90;;;8.52;100.00;100386.75;5038062;28;20557;-66
2021/11/05 08:52:52;;;;;;;12.30;9.03;;;7.70;99.90;;;8.61;100.00;100398.13;5037069;28;20210;-66
2021/11/05 08:55:20;;;;;;;12.40;8.83;;;7.70;99.90;;;8.58;100.00;100398.53;5036751;28;20234;-65
2021/11/05 08:57:49;;;;;;;12.17;8.87;;;7.70;99.90;;;8.63;100.00;100402.28;5035865;28;20716;-66
2021/11/05 09:00:21;;;;;;;12.93;9.47;;;7.80;99.90;;;8.84;100.00;100404.00;5033806;28;20206;-65
2021/11/05 09:02:50;;;;;;;14.97;10.03;;;7.80;99.90;;;8.91;100.00;100414.78;5034032;28;20202;-65
2021/11/05 09:05:19;;;;;;;11.37;8.70;;;7.90;99.90;;;8.96;100.00;100415.81;5032526;28;20603;-65
2021/11/05 09:07:48;;;;;;;12.63;9.13;;;7.90;99.90;;;8.89;100.00;100416.81;5031857;28;20204;-64
2021/11/05 09:10:18;;;;;;;10.33;8.27;;;8.00;99.90;;;8.97;100.00;100420.16;5031839;28;20739;-65
2021/11/05 09:12:46;;;;;;;10.40;8.03;;;8.00;99.90;;;9.07;100.00;100427.81;5031762;28;20198;-64
2021/11/05 09:15:18;;;;;;;13.07;8.20;;;8.10;99.90;;;9.06;100.00;100432.38;5032266;28;20260;-65
2021/11/05 09:17:46;;;;;;;11.67;9.07;;;8.10;99.90;;;9.00;100.00;100443.13;5033070;28;20269;-66
2021/11/05 09:20:18;;;;;;;11.20;8.30;;;8.20;99.90;;;9.06;100.00;100447.66;5032600;28;20212;-65
2021/11/05 09:22:47;;;;;;;10.60;8.50;;;8.20;99.90;;;9.06;100.00;100443.13;5031903;28;20256;-66
2021/11/05 09:25:18;;;;;;;11.40;8.23;;;8.20;99.90;;;9.08;100.00;100451.00;5032121;28;20269;-66
2021/11/05 09:27:47;;;;;;;11.73;8.70;;;8.20;99.90;;;9.15;100.00;100449.16;5029633;28;20625;-63
2021/11/05 09:30:18;;;;;;;9.87;8.13;;;8.20;99.90;;;9.42;100.00;100456.25;5031839;28;20226;-63
2021/11/05 09:32:47;;;;;;;10.50;8.40;;;8.30;99.90;;;9.32;100.00;100459.31;5031455;28;20697;-62
2021/11/05 09:35:15;;;;;;;10.83;8.03;;;8.40;99.90;;;9.49;100.00;100462.44;5031390;28;20241;-61
2021/11/05 09:37:44;;;;;;;12.50;8.00;;;8.50;99.90;;;9.41;100.00;100468.84;5030418;28;20290;-62
2021/11/05 09:40:15;;;;;;;11.50;8.20;;;8.50;99.90;;;9.54;100.00;100473.38;5032032;28;20244;-66
2021/11/05 09:42:48;;;;;;;12.63;8.97;;;8.50;99.90;;;9.59;100.00;100470.91;5031747;28;20206;-66
2021/11/05 09:45:18;;;;;;;12.30;8.83;;;8.60;99.90;;;9.74;100.00;100479.66;5031489;28;20284;-61
2021/11/05 09:47:48;;;;;;;12.97;9.07;;;8.60;99.90;;;9.70;100.00;100476.53;5031279;28;20649;-60
2021/11/05 09:50:23;;;;;;;11.93;8.87;;;8.70;99.90;;;9.75;100.00;100490.19;5031083;28;20618;-60
2021/11/05 09:52:52;;;;;;;12.17;8.73;;;8.70;99.90;;;9.69;100.00;100485.63;5031513;28;20186;-60
2021/11/05 09:55:21;;;;;;;11.83;9.37;;;8.80;99.90;;;9.84;100.00;100486.25;5031032;28;20293;-63
2021/11/05 09:57:51;;;;;;;10.67;8.83;;;8.80;99.90;;;9.89;100.00;100497.22;5031251;28;20672;-68
2021/11/05 10:00:24;;;;;;;12.17;10.10;;;8.80;99.90;;;9.98;100.00;100489.75;5030945;28;20615;-67
2021/11/05 10:02:53;;;;;;;11.83;9.40;;;8.90;99.90;;;10.11;100.00;100505.13;5031233;28;20245;-63
2021/11/05 10:05:22;;;;;;;10.53;9.23;;;8.90;99.90;;;9.93;100.00;100500.31;5030441;28;20202;-65
2021/11/05 10:07:54;;;;;;;10.43;8.43;;;9.00;99.90;;;10.12;100.00;100506.78;5030978;28;20709;-64
2021/11/05 10:10:29;;;;;;;9.70;8.10;;;9.00;99.90;;;10.20;100.00;100506.56;5031362;28;20795;-64
2021/11/05 10:13:02;;;;;;;9.53;8.00;;;9.10;99.90;;;10.27;100.00;100510.91;5031100;28;20216;-63
2021/11/05 10:15:40;;;;;;;10.13;7.47;;;9.10;99.90;;;10.45;100.00;100523.75;5031189;28;20193;-63
2021/11/05 10:18:13;;;;;;;7.70;6.70;;;9.20;99.90;;;10.36;100.00;100515.03;5030870;28;20221;-63
2021/11/05 10:20:43;;;;;;;9.03;7.23;;;9.30;99.90;;;10.22;100.00;100521.47;5031075;28;20190;-64